Latest Weather Observations for Varanus Island

IDW60801

Issued at 9:43 pm WST Sunday 17 February 2019 (issued every 10 minutes, with the page automatically refreshed every 10 minutes)

About weather observations | Map of weather stations | Latest weather observations for WA | Other Formats
Station Details ID: 200100 Name: VARANUS ISLAND Lat: -20.66 Lon: 115.58 Height: 24.0 m
Data from the previous 72 hours. | See also: Recent months at Varanus Island
Date/Time
WST
Temp
°C
App
Temp
°C
Dew
Point
°C
Rel
Hum
%
Delta-T
°C
Wind Press
QNH
hPa
Press
MSL
hPa
Rain since
9am
mm
Dir  Spd
km/h
Gust
km/h
Spd
kts
Gust
kts
17/09:30pm 28.9 29.7 23.8 74 3.5 WSW 26 32 14 17 1008.9 - 0.0
17/09:00pm 29.0 28.7 23.9 74 3.5 WSW 32 35 17 19 1008.1 1007.9 0.0
17/08:30pm 29.0 29.5 23.9 74 3.5 WSW 28 33 15 18 1007.8 - 0.0
17/08:00pm 29.3 29.7 23.7 72 3.9 WSW 28 32 15 17 1007.5 - 0.0
17/07:30pm 29.5 30.7 23.9 72 3.9 WSW 24 30 13 16 1007.1 - 0.0
17/07:00pm 29.8 30.4 24.2 72 3.9 WSW 28 32 15 17 1006.6 - 0.0
17/06:30pm 30.2 30.9 23.6 67 4.6 W 26 30 14 16 1006.2 - 0.0
17/06:00pm 31.2 31.9 23.6 64 5.3 W 26 28 14 15 1005.8 1005.6 0.0
17/05:30pm 31.9 32.5 23.4 60 5.9 W 26 30 14 16 1005.6 - 0.0
17/05:00pm 31.8 31.7 23.6 62 5.7 W 30 33 16 18 1005.7 - 0.0
17/04:30pm 32.5 32.9 23.7 59 6.1 W 28 32 15 17 1005.7 - 0.0
17/04:00pm 32.7 33.2 23.9 60 6.1 W 28 33 15 18 1006.0 - 0.0
17/03:30pm 32.5 33.9 24.8 64 5.4 W 26 32 14 17 1006.3 - 0.0
17/03:00pm 32.7 34.7 25.2 64 5.3 W 24 30 13 16 1006.5 1006.3 0.0
17/02:30pm 32.9 35.2 24.4 61 6.0 W 20 28 11 15 1006.7 - 0.0
17/02:00pm 33.9 36.9 24.7 58 6.5 W 17 20 9 11 1007.0 - 0.0
17/01:30pm 32.5 34.1 23.2 58 6.4 WSW 20 24 11 13 1007.1 - 0.0
17/01:00pm 32.2 32.9 22.9 58 6.4 SSW 24 28 13 15 1007.4 - 0.0
17/12:30pm 31.8 31.1 22.5 58 6.4 SSW 30 35 16 19 1007.8 - 0.0
17/12:00pm 30.0 28.5 22.7 65 5.0 SSW 35 41 19 22 1008.1 1007.9 0.0
17/11:30am 28.8 27.7 23.5 73 3.6 SW 35 41 19 22 1008.7 - -
17/11:00am 28.1 26.7 23.0 74 3.5 SW 35 43 19 23 1008.5 - 0.0
17/10:30am 28.1 25.5 22.8 73 3.6 SW 41 44 22 24 1008.8 - 0.0
17/10:00am 28.2 26.3 22.7 72 3.7 SSW 37 46 20 25 1008.8 - 0.0
17/09:30am 28.2 25.4 23.1 74 3.5 SSW 43 50 23 27 1008.6 - 0.0
17/09:00am 28.5 25.6 23.4 74 3.5 SW 44 50 24 27 1008.5 1008.3 0.0
17/08:30am 28.4 25.6 23.1 73 3.6 SSW 43 50 23 27 1008.6 - 0.0
17/08:00am 28.4 25.8 22.9 72 3.7 SSW 41 46 22 25 1008.4 - 0.0
17/07:30am 28.4 25.6 23.1 73 3.6 SSW 43 50 23 27 1008.1 - 0.0
17/07:00am 28.4 26.2 22.9 72 3.7 SSW 39 44 21 24 1008.2 - 0.0
17/06:30am 28.4 27.4 22.6 71 3.9 SSW 32 37 17 20 1008.7 - 0.0
17/06:00am 28.5 27.8 22.5 70 4.1 SSW 30 37 16 20 1008.8 1008.6 0.0
17/05:30am 28.7 25.9 21.7 66 4.7 SW 39 46 21 25 1008.0 - 0.0
17/05:00am 28.9 26.4 21.7 65 4.8 SSW 37 44 20 24 1008.2 - 0.0
17/04:30am 28.9 27.1 22.2 67 4.5 SW 35 39 19 21 1007.9 - 0.0
17/04:00am 29.2 27.1 21.7 64 5.0 SW 35 41 19 22 1007.8 - 0.0
17/03:30am 29.4 27.3 21.6 63 5.2 SSW 35 43 19 23 1007.8 - 0.0
17/03:00am 29.3 27.0 22.0 64 4.9 SSW 37 44 20 24 1007.5 1007.3 0.0
17/02:30am 29.2 26.5 22.7 68 4.4 SSW 41 48 22 26 1007.3 - 0.0
17/02:00am 29.4 26.8 22.9 68 4.4 SSW 41 48 22 26 1007.4 - 0.0
17/01:30am 29.5 26.4 23.0 68 4.4 SSW 44 54 24 29 1007.3 - 0.0
17/01:00am 29.4 26.0 23.1 69 4.3 SSW 46 57 25 31 1007.2 - 0.0
17/12:30am 29.4 25.2 23.1 69 4.3 SSW 50 57 27 31 1007.3 - 0.0
17/12:00am 29.3 25.6 24.0 73 3.7 SSW 50 59 27 32 1007.6 1007.4 0.0
 
Date/Time
WST
Temp
°C
App
Temp
°C
Dew
Point
°C
Rel
Hum
%
Delta-T
°C
Wind Press
QNH
hPa
Press
MSL
hPa
Rain since
9am
mm
Dir  Spd
km/h
Gust
km/h
Spd
kts
Gust
kts
16/11:30pm 29.5 25.4 23.9 72 3.9 SSW 52 61 28 33 1007.9 - 0.0
16/11:00pm 29.8 25.9 23.5 69 4.3 SSW 50 61 27 33 1008.3 - 0.0
16/10:30pm 30.0 25.5 23.2 67 4.7 SW 52 61 28 33 1008.2 - 0.0
16/10:00pm 30.6 25.4 22.7 62 5.4 SW 54 63 29 34 1008.0 - 0.0
16/09:30pm 31.0 26.8 22.3 60 5.9 SW 48 57 26 31 1008.0 - 0.0
16/09:00pm 31.3 27.2 21.8 57 6.4 SW 46 52 25 28 1008.0 1007.8 0.0
16/08:30pm 30.7 27.2 22.3 61 5.7 WSW 44 52 24 28 1008.0 - 0.0
16/08:00pm 30.8 27.7 22.7 62 5.5 WSW 43 50 23 27 1007.9 - 0.0
16/07:30pm 31.0 27.9 22.9 62 5.6 WSW 44 57 24 31 1007.6 - 0.0
16/07:00pm 31.3 28.6 22.6 60 5.9 WSW 41 48 22 26 1007.4 - 0.0
16/06:30pm 32.6 28.3 21.5 52 7.5 WSW 46 54 25 29 1006.9 - 0.0
16/06:00pm 32.9 29.5 22.4 54 7.2 WSW 44 50 24 27 1006.8 1006.6 0.0
16/05:30pm 33.6 30.6 22.1 51 7.9 WSW 41 48 22 26 1006.7 - 0.0
16/05:00pm 33.3 30.5 22.4 52 7.5 WSW 41 46 22 25 1006.8 - 0.0
16/04:30pm 33.8 32.2 23.2 54 7.3 WSW 37 44 20 24 1007.0 - 0.0
16/04:00pm 32.8 31.3 23.4 57 6.5 W 37 41 20 22 1007.3 - 0.0
16/03:30pm 33.4 31.7 23.1 54 7.1 W 37 41 20 22 1007.4 - 0.0
16/03:00pm 33.4 33.4 23.7 56 6.8 W 30 35 16 19 1007.8 1007.6 0.0
16/02:30pm 33.9 33.5 23.0 53 7.5 SW 30 32 16 17 1008.1 - 0.0
16/02:00pm 34.1 32.3 21.5 47 8.6 SW 33 37 18 20 1008.3 - 0.0
16/01:30pm 33.7 31.3 21.8 49 8.1 SW 37 41 20 22 1008.5 - 0.0
16/01:00pm 33.4 30.7 21.2 48 8.2 SW 37 43 20 23 1008.9 - 0.0
16/12:30pm 33.6 29.7 20.4 46 8.8 SW 41 46 22 25 1009.1 - 0.0
16/12:00pm 33.2 29.0 19.7 45 8.9 SW 41 48 22 26 1009.5 1009.3 0.0
16/11:30am 32.0 28.5 20.3 50 7.8 SW 39 44 21 24 1010.0 - 0.0
16/11:00am 30.6 27.8 21.7 59 6.0 SW 39 48 21 26 1010.4 - 0.0
16/10:30am 30.5 28.3 22.1 61 5.7 SSW 37 44 20 24 1010.7 - 0.0
16/10:00am 30.7 28.0 21.2 57 6.4 SSW 37 46 20 25 1011.1 - 0.0
16/09:30am 30.4 28.6 22.3 62 5.5 SSW 35 46 19 25 1011.4 - 0.0
16/09:00am 30.6 28.8 22.2 61 5.7 SSW 35 - 19 - - 1011.4 0.0
16/08:30am 30.1 27.3 21.7 60 5.7 SSW 39 46 21 25 1011.5 - 0.0
16/08:00am 30.1 27.3 21.7 60 5.7 SSW 39 48 21 26 1011.2 - 0.0
16/07:30am 30.0 27.5 21.7 61 5.6 SSW 37 44 20 24 1011.1 - 0.0
16/07:00am 30.0 28.3 21.7 61 5.6 SSW 33 39 18 21 1011.2 - 0.0
16/06:30am 30.0 27.8 21.4 60 5.8 SSW 35 41 19 22 1011.0 - 0.0
16/06:00am 30.0 27.8 21.4 60 5.8 SSW 35 43 19 23 1010.7 1010.5 0.0
16/05:30am 30.1 26.8 20.9 57 6.1 SSW 39 44 21 24 1010.3 - 0.0
16/05:00am 30.1 26.8 20.9 57 6.1 SSW 39 48 21 26 1010.1 - 0.0
16/04:30am 30.1 27.6 21.7 60 5.7 SSW 37 44 20 24 1010.3 - 0.0
16/04:00am 29.9 28.3 22.6 65 5.0 SSW 35 41 19 22 1010.2 - 0.0
16/03:30am 29.7 29.0 23.2 68 4.5 SSW 32 39 17 21 1010.4 - 0.0
16/03:00am 29.7 28.8 23.2 68 4.5 SSW 33 41 18 22 1010.2 1010.0 0.0
16/02:30am 29.7 28.9 23.4 69 4.3 SW 33 41 18 22 1010.3 - 0.0
16/02:00am 29.7 28.8 23.9 71 4.0 SW 35 39 19 21 1010.4 - 0.0
16/01:30am 29.6 28.1 23.5 69 4.2 SW 37 43 20 23 1010.6 - 0.0
16/01:00am 29.4 29.3 24.5 75 3.4 SW 33 39 18 21 1011.0 - 0.0
16/12:30am 29.4 28.4 24.3 74 3.5 SW 37 43 20 23 1011.3 - 0.0
16/12:00am 29.5 28.6 24.4 74 3.6 SW 37 43 20 23 1011.4 1011.2 0.0
 
Date/Time
WST
Temp
°C
App
Temp
°C
Dew
Point
°C
Rel
Hum
%
Delta-T
°C
Wind Press
QNH
hPa
Press
MSL
hPa
Rain since
9am
mm
Dir  Spd
km/h
Gust
km/h
Spd
kts
Gust
kts
15/11:30pm 29.6 29.2 24.7 75 3.4 SW 35 43 19 23 1011.5 - 0.0
15/11:00pm 29.8 28.6 23.3 68 4.5 SW 35 43 19 23 1011.8 - 0.0
15/10:30pm 29.7 28.2 23.4 69 4.3 WSW 37 43 20 23 1011.6 - 0.0
15/10:00pm 29.5 28.2 23.2 69 4.3 WSW 35 41 19 22 1011.8 - 0.0
15/09:30pm 29.0 28.0 23.7 73 3.7 WSW 35 43 19 23 1011.8 - 0.0
15/09:00pm 28.8 27.9 23.9 75 3.4 WSW 35 41 19 22 1011.9 1011.7 0.0
15/08:30pm 29.0 28.0 24.3 76 3.3 WSW 37 43 20 23 1011.6 - 0.0
15/08:00pm 28.8 28.4 24.6 78 2.9 WSW 35 43 19 23 1011.5 - 0.0
15/07:30pm 28.9 27.8 24.2 76 3.3 W 37 46 20 25 1011.0 - 0.0
15/07:00pm 29.2 28.0 23.9 73 3.7 W 37 43 20 23 1010.5 - 0.0
15/06:30pm 29.9 28.9 23.6 69 4.4 W 35 41 19 22 1010.4 - 0.0
15/06:00pm 30.5 29.6 23.9 68 4.6 W 35 41 19 22 1010.3 1010.1 0.0
15/05:30pm 30.9 30.7 24.1 67 4.7 W 32 39 17 21 1010.5 - 0.0
15/05:00pm 30.7 30.7 24.4 69 4.4 W 32 37 17 20 1010.6 - 0.0
15/04:30pm 30.7 30.6 24.6 70 4.3 W 33 39 18 21 1010.6 - 0.0
15/04:00pm 31.0 30.8 24.4 68 4.6 W 33 39 18 21 1010.5 - 0.0
15/03:30pm 31.3 31.5 24.7 68 4.6 W 32 39 17 21 1010.5 - 0.0
15/03:00pm 31.5 32.3 25.1 69 4.5 W 30 39 16 21 1010.6 1010.4 0.0
15/02:30pm 30.9 31.0 24.8 70 4.3 W 33 39 18 21 1010.8 - 0.0
15/02:00pm 30.9 30.8 24.3 68 4.6 W 32 35 17 19 1011.1 - 0.0
15/01:30pm 30.8 30.7 24.2 68 4.6 W 32 35 17 19 1011.4 - 0.0
15/01:00pm 30.8 31.6 24.4 68 4.5 W 28 33 15 18 1011.9 - 0.0
15/12:30pm 30.9 32.0 24.3 68 4.6 W 26 30 14 16 1012.4 - 0.0
15/12:00pm 30.3 30.5 23.5 67 4.7 W 28 32 15 17 1012.6 1012.4 0.0
15/11:30am 30.3 31.2 24.0 69 4.4 W 26 30 14 16 1013.1 - 0.0
15/11:00am 30.5 31.9 24.2 69 4.4 W 24 28 13 15 1013.6 - 0.0
15/10:30am 30.6 33.4 24.3 69 4.4 W 17 22 9 12 1013.8 - 0.0
15/10:00am 30.0 34.1 24.6 73 3.8 SW 11 11 6 6 1014.0 - 0.0
15/09:30am 29.7 32.9 24.3 73 3.8 SW 15 17 8 9 1014.1 - 0.0
15/09:00am 29.4 31.9 23.8 72 3.9 WSW 17 19 9 10 1014.3 1014.1 0.0
15/08:30am 28.5 30.5 23.9 76 3.2 WSW 20 24 11 13 1014.1 - 0.0
15/08:00am 27.7 28.7 24.1 81 2.5 WSW 26 28 14 15 1013.8 - 0.0
15/07:30am 27.3 28.8 24.4 84 2.0 WSW 24 28 13 15 1013.7 - 0.0
15/07:00am 27.1 28.6 24.4 85 1.9 WSW 24 28 13 15 1013.5 - 0.0
15/06:30am 27.1 28.2 24.4 85 1.9 W 26 28 14 15 1013.0 - 0.0
15/06:00am 26.9 27.8 24.0 84 2.0 W 26 28 14 15 1012.5 1012.3 0.0
15/05:30am 27.0 28.1 23.7 82 2.3 W 24 28 13 15 1012.4 - 0.0
15/05:00am 27.2 29.2 23.9 82 2.3 W 20 24 11 13 1012.4 - 0.0
15/04:30am 27.0 28.8 23.5 81 2.4 W 20 24 11 13 1012.2 - 0.0
15/04:00am 26.9 28.8 23.8 83 2.1 W 20 24 11 13 1012.0 - 0.0
15/03:30am 27.0 28.9 23.7 82 2.3 W 20 24 11 13 1012.0 - 0.0
15/03:00am 27.0 29.1 24.1 84 2.0 W 20 24 11 13 1012.0 1011.8 0.0
15/02:30am 26.8 28.8 23.9 84 2.0 W 20 22 11 12 1011.9 - 0.0
15/02:00am 26.9 29.1 24.2 85 1.9 W 20 22 11 12 1011.8 - 0.0
15/01:30am 26.9 28.3 24.2 85 1.9 WSW 24 28 13 15 1012.0 - 0.0
15/01:00am 27.0 28.8 24.3 85 1.9 WSW 22 24 12 13 1012.2 - 0.0
15/12:30am 26.9 28.8 23.8 83 2.1 W 20 24 11 13 1012.4 - 0.0
15/12:00am 27.0 28.9 23.7 82 2.3 W 20 24 11 13 1012.6 1012.4 0.0
 
Date/Time
WST
Temp
°C
App
Temp
°C
Dew
Point
°C
Rel
Hum
%
Delta-T
°C
Wind Press
QNH
hPa
Press
MSL
hPa
Rain since
9am
mm
Dir  Spd
km/h
Gust
km/h
Spd
kts
Gust
kts
14/11:30pm 27.2 28.3 23.7 81 2.4 WSW 24 28 13 15 1012.7 - 0.0
14/11:00pm 27.2 28.5 23.4 80 2.6 W 22 24 12 13 1012.7 - 0.0
14/10:30pm 27.1 28.4 23.3 80 2.6 WSW 22 28 12 15 1012.7 - 0.0

Other Formats:

Comma delimited format used in spreadsheet applications
http://www.bom.gov.au/fwo/IDW60801/IDW60801.95303.axf

JavaScript Object Notation format (JSON) in row-major order
http://www.bom.gov.au/fwo/IDW60801/IDW60801.95303.json